sensor_id;sensor_type;location;lat;lon;timestamp;pressure;altitude;pressure_sealevel;temperature;humidity
48527;BME280;34317;51.660;5.824;2023-03-19T00:00:44;101027.59;;;15.16;54.19
48527;BME280;34317;51.660;5.824;2023-03-19T00:03:12;101027.78;;;15.13;54.26
48527;BME280;34317;51.660;5.824;2023-03-19T00:05:39;101021.78;;;15.09;54.43
48527;BME280;34317;51.660;5.824;2023-03-19T00:08:06;101023.69;;;15.07;54.41
48527;BME280;34317;51.660;5.824;2023-03-19T00:10:37;101030.03;;;15.05;54.63
48527;BME280;34317;51.660;5.824;2023-03-19T00:13:05;101024.84;;;15.03;54.78
48527;BME280;34317;51.660;5.824;2023-03-19T00:15:33;101031.94;;;15.03;54.81
48527;BME280;34317;51.660;5.824;2023-03-19T00:18:00;101028.53;;;15.01;54.81
48527;BME280;34317;51.660;5.824;2023-03-19T00:20:28;101020.81;;;14.96;55.02
48527;BME280;34317;51.660;5.824;2023-03-19T00:22:55;101034.25;;;14.94;55.04
48527;BME280;34317;51.660;5.824;2023-03-19T00:25:22;101021.84;;;14.93;55.11
48527;BME280;34317;51.660;5.824;2023-03-19T00:27:49;101027.38;;;14.90;55.16
48527;BME280;34317;51.660;5.824;2023-03-19T00:30:18;101018.63;;;14.88;55.32
48527;BME280;34317;51.660;5.824;2023-03-19T00:32:47;101015.19;;;14.86;55.45
48527;BME280;34317;51.660;5.824;2023-03-19T00:35:14;101017.06;;;14.84;55.49
48527;BME280;34317;51.660;5.824;2023-03-19T00:37:42;101015.34;;;14.83;55.63
48527;BME280;34317;51.660;5.824;2023-03-19T00:40:10;101018.97;;;14.82;55.66
48527;BME280;34317;51.660;5.824;2023-03-19T00:42:38;101017.25;;;14.81;55.64
48527;BME280;34317;51.660;5.824;2023-03-19T00:45:06;101020.88;;;14.80;55.79
48527;BME280;34317;51.660;5.824;2023-03-19T00:47:33;101019.16;;;14.79;55.71
48527;BME280;34317;51.660;5.824;2023-03-19T00:50:03;101026.41;;;14.77;55.85
48527;BME280;34317;51.660;5.824;2023-03-19T00:52:30;101024.00;;;14.72;55.86
48527;BME280;34317;51.660;5.824;2023-03-19T00:54:57;101020.56;;;14.70;55.86
48527;BME280;34317;51.660;5.824;2023-03-19T00:57:25;101031.31;;;14.69;56.09
48527;BME280;34317;51.660;5.824;2023-03-19T00:59:53;101028.84;;;14.66;56.21
48527;BME280;34317;51.660;5.824;2023-03-19T01:02:20;101026.25;;;14.64;56.18
48527;BME280;34317;51.660;5.824;2023-03-19T01:04:47;101034.34;;;14.63;56.28
48527;BME280;34317;51.660;5.824;2023-03-19T01:07:15;101037.94;;;14.62;56.09
48527;BME280;34317;51.660;5.824;2023-03-19T01:09:43;101037.94;;;14.62;56.48
48527;BME280;34317;51.660;5.824;2023-03-19T01:12:10;101036.25;;;14.60;56.58
48527;BME280;34317;51.660;5.824;2023-03-19T01:14:37;101031.97;;;14.58;56.60
48527;BME280;34317;51.660;5.824;2023-03-19T01:17:05;101031.09;;;14.57;56.84
48527;BME280;34317;51.660;5.824;2023-03-19T01:19:33;101036.41;;;14.57;56.69
48527;BME280;34317;51.660;5.824;2023-03-19T01:22:00;101031.09;;;14.57;56.85
48527;BME280;34317;51.660;5.824;2023-03-19T01:24:30;101025.75;;;14.57;56.91
48527;BME280;34317;51.660;5.824;2023-03-19T01:26:58;101020.41;;;14.57;56.98
48527;BME280;34317;51.660;5.824;2023-03-19T01:29:33;101024.03;;;14.56;56.79
48527;BME280;34317;51.660;5.824;2023-03-19T01:32:09;101013.38;;;14.56;56.84
48527;BME280;34317;51.660;5.824;2023-03-19T01:34:53;101021.44;;;14.55;56.86
48527;BME280;34317;51.660;5.824;2023-03-19T01:37:20;101020.59;;;14.54;56.98
48527;BME280;34317;51.660;5.824;2023-03-19T01:39:47;101025.91;;;14.54;56.88
48527;BME280;34317;51.660;5.824;2023-03-19T01:42:15;101021.44;;;14.55;57.09
48527;BME280;34317;51.660;5.824;2023-03-19T01:45:31;101018.09;;;14.51;56.99
48527;BME280;34317;51.660;5.824;2023-03-19T01:48:28;101013.91;;;14.47;56.91
48527;BME280;34317;51.660;5.824;2023-03-19T01:51:02;101017.50;;;14.46;56.83
48527;BME280;34317;51.660;5.824;2023-03-19T01:53:57;101005.13;;;14.45;57.05
48527;BME280;34317;51.660;5.824;2023-03-19T01:56:46;101005.31;;;14.42;57.02
48527;BME280;34317;51.660;5.824;2023-03-19T01:59:52;101015.28;;;14.38;56.91
48527;BME280;34317;51.660;5.824;2023-03-19T02:02:39;101017.19;;;14.36;57.04
48527;BME280;34317;51.660;5.824;2023-03-19T02:05:16;101018.22;;;14.34;57.09
48527;BME280;34317;51.660;5.824;2023-03-19T02:07:58;101014.78;;;14.32;57.34
48527;BME280;34317;51.660;5.824;2023-03-19T02:10:28;101014.88;;;14.30;57.45
48527;BME280;34317;51.660;5.824;2023-03-19T02:12:56;101016.69;;;14.30;57.40
48527;BME280;34317;51.660;5.824;2023-03-19T02:15:24;101020.28;;;14.29;57.55
48527;BME280;34317;51.660;5.824;2023-03-19T02:17:51;101022.03;;;14.30;57.59
48527;BME280;34317;51.660;5.824;2023-03-19T02:20:28;101018.41;;;14.31;57.70
48527;BME280;34317;51.660;5.824;2023-03-19T02:25:59;101019.25;;;14.31;57.64
48527;BME280;34317;51.660;5.824;2023-03-19T02:28:28;101016.50;;;14.33;57.58
48527;BME280;34317;51.660;5.824;2023-03-19T02:30:56;101018.22;;;14.34;57.53
48527;BME280;34317;51.660;5.824;2023-03-19T02:33:23;101016.50;;;14.33;57.66
48527;BME280;34317;51.660;5.824;2023-03-19T02:35:51;101016.50;;;14.33;57.44
48527;BME280;34317;51.660;5.824;2023-03-19T02:38:22;101016.50;;;14.33;57.78
48527;BME280;34317;51.660;5.824;2023-03-19T02:40:55;101018.22;;;14.34;57.86
48527;BME280;34317;51.660;5.824;2023-03-19T02:43:25;101015.56;;;14.34;57.71
48527;BME280;34317;51.660;5.824;2023-03-19T02:45:53;101014.59;;;14.35;57.81
48527;BME280;34317;51.660;5.824;2023-03-19T02:48:22;101013.75;;;14.34;57.80
48527;BME280;34317;51.660;5.824;2023-03-19T02:50:49;101009.28;;;14.35;57.87
48527;BME280;34317;51.660;5.824;2023-03-19T02:53:17;101016.34;;;14.36;58.01
48527;BME280;34317;51.660;5.824;2023-03-19T02:55:44;101016.34;;;14.36;58.13
48527;BME280;34317;51.660;5.824;2023-03-19T02:58:12;101022.50;;;14.36;58.00
48527;BME280;34317;51.660;5.824;2023-03-19T03:00:39;101028.69;;;14.37;58.04
48527;BME280;34317;51.660;5.824;2023-03-19T03:03:08;101032.31;;;14.36;58.06
48527;BME280;34317;51.660;5.824;2023-03-19T03:05:35;101034.03;;;14.37;58.13
48527;BME280;34317;51.660;5.824;2023-03-19T03:08:03;101027.00;;;14.36;57.99
48527;BME280;34317;51.660;5.824;2023-03-19T03:10:31;101026.13;;;14.35;58.12
48527;BME280;34317;51.660;5.824;2023-03-19T03:12:59;101025.25;;;14.35;58.29
48527;BME280;34317;51.660;5.824;2023-03-19T03:15:27;101032.31;;;14.36;58.17
48527;BME280;34317;51.660;5.824;2023-03-19T03:17:55;101029.56;;;14.37;58.21
48527;BME280;34317;51.660;5.824;2023-03-19T03:20:23;101030.41;;;14.38;58.34
48527;BME280;34317;51.660;5.824;2023-03-19T03:22:51;101042.78;;;14.39;58.22
48527;BME280;34317;51.660;5.824;2023-03-19T03:25:19;101042.78;;;14.39;58.46
48527;BME280;34317;51.660;5.824;2023-03-19T03:27:47;101044.50;;;14.40;58.38
48527;BME280;34317;51.660;5.824;2023-03-19T03:30:14;101048.91;;;14.41;58.29
48527;BME280;34317;51.660;5.824;2023-03-19T03:32:42;101047.09;;;14.41;58.32
48527;BME280;34317;51.660;5.824;2023-03-19T03:35:09;101047.94;;;14.42;58.46
48527;BME280;34317;51.660;5.824;2023-03-19T03:37:37;101043.38;;;14.44;58.39
48527;BME280;34317;51.660;5.824;2023-03-19T03:40:06;101039.88;;;14.44;58.46
48527;BME280;34317;51.660;5.824;2023-03-19T03:42:35;101040.72;;;14.44;58.37
48527;BME280;34317;51.660;5.824;2023-03-19T03:45:05;101047.78;;;14.45;58.58
48527;BME280;34317;51.660;5.824;2023-03-19T03:47:33;101049.69;;;14.43;58.38
48527;BME280;34317;51.660;5.824;2023-03-19T03:50:00;101044.34;;;14.43;58.42
48527;BME280;34317;51.660;5.824;2023-03-19T03:52:29;101042.44;;;14.45;58.49
48527;BME280;34317;51.660;5.824;2023-03-19T03:54:57;101043.28;;;14.46;58.40
48527;BME280;34317;51.660;5.824;2023-03-19T03:57:25;101042.44;;;14.45;58.62
48527;BME280;34317;51.660;5.824;2023-03-19T03:59:55;101038.81;;;14.46;58.50
48527;BME280;34317;51.660;5.824;2023-03-19T04:02:23;101044.16;;;14.46;58.48
48527;BME280;34317;51.660;5.824;2023-03-19T04:04:51;101053.09;;;14.45;58.67
48527;BME280;34317;51.660;5.824;2023-03-19T04:07:19;101057.47;;;14.46;58.84
48527;BME280;34317;51.660;5.824;2023-03-19T04:09:52;101056.53;;;14.47;58.60
48527;BME280;34317;51.660;5.824;2023-03-19T04:12:20;101052.13;;;14.46;58.51
48527;BME280;34317;51.660;5.824;2023-03-19T04:14:48;101056.53;;;14.47;58.62
48527;BME280;34317;51.660;5.824;2023-03-19T04:17:15;101054.81;;;14.46;58.65
48527;BME280;34317;51.660;5.824;2023-03-19T04:19:43;101053.88;;;14.47;58.67
48527;BME280;34317;51.660;5.824;2023-03-19T04:22:10;101056.53;;;14.47;58.64
48527;BME280;34317;51.660;5.824;2023-03-19T04:24:37;101058.44;;;14.45;58.61
48527;BME280;34317;51.660;5.824;2023-03-19T04:27:06;101058.53;;;14.44;58.60
48527;BME280;34317;51.660;5.824;2023-03-19T04:29:34;101060.34;;;14.43;58.70
48527;BME280;34317;51.660;5.824;2023-03-19T04:32:02;101051.56;;;14.41;58.59
48527;BME280;34317;51.660;5.824;2023-03-19T04:34:30;101064.09;;;14.39;58.64
48527;BME280;34317;51.660;5.824;2023-03-19T04:36:57;101058.97;;;14.36;58.39
48527;BME280;34317;51.660;5.824;2023-03-19T04:39:26;101068.09;;;14.32;58.65
48527;BME280;34317;51.660;5.824;2023-03-19T04:41:53;101069.97;;;14.30;58.47
48527;BME280;34317;51.660;5.824;2023-03-19T04:44:44;101072.88;;;14.25;58.45
48527;BME280;34317;51.660;5.824;2023-03-19T04:47:11;101075.84;;;14.20;58.49
48527;BME280;34317;51.660;5.824;2023-03-19T04:49:48;101074.25;;;14.16;58.47
48527;BME280;34317;51.660;5.824;2023-03-19T04:52:18;101069.13;;;14.13;58.62
48527;BME280;34317;51.660;5.824;2023-03-19T04:54:45;101076.34;;;14.11;58.57
48527;BME280;34317;51.660;5.824;2023-03-19T04:57:12;101068.59;;;14.07;58.58
48527;BME280;34317;51.660;5.824;2023-03-19T04:59:41;101075.91;;;14.03;58.72
48527;BME280;34317;51.660;5.824;2023-03-19T05:02:11;101075.22;;;13.99;58.74
48527;BME280;34317;51.660;5.824;2023-03-19T05:04:40;101079.00;;;13.95;58.76
48527;BME280;34317;51.660;5.824;2023-03-19T05:07:11;101076.50;;;13.92;58.58
48527;BME280;34317;51.660;5.824;2023-03-19T05:09:40;101077.53;;;13.90;58.57
48527;BME280;34317;51.660;5.824;2023-03-19T05:12:11;101086.63;;;13.86;58.68
48527;BME280;34317;51.660;5.824;2023-03-19T05:14:50;101081.50;;;13.82;58.67
48527;BME280;34317;51.660;5.824;2023-03-19T05:17:20;101084.38;;;13.78;58.60
48527;BME280;34317;51.660;5.824;2023-03-19T05:20:07;101090.91;;;13.72;58.67
48527;BME280;34317;51.660;5.824;2023-03-19T05:22:36;101088.59;;;13.66;58.76
48527;BME280;34317;51.660;5.824;2023-03-19T05:25:04;101104.72;;;13.63;58.72
48527;BME280;34317;51.660;5.824;2023-03-19T05:27:33;101100.50;;;13.59;58.83
48527;BME280;34317;51.660;5.824;2023-03-19T05:30:09;101096.38;;;13.53;58.89
48527;BME280;34317;51.660;5.824;2023-03-19T05:32:57;101095.66;;;13.50;59.07
48527;BME280;34317;51.660;5.824;2023-03-19T05:35:31;101095.81;;;13.47;59.00
48527;BME280;34317;51.660;5.824;2023-03-19T05:38:00;101101.31;;;13.43;59.05
48527;BME280;34317;51.660;5.824;2023-03-19T05:40:28;101102.31;;;13.41;59.12
48527;BME280;34317;51.660;5.824;2023-03-19T05:42:58;101108.69;;;13.38;59.15
48527;BME280;34317;51.660;5.824;2023-03-19T05:45:27;101110.56;;;13.36;59.09
48527;BME280;34317;51.660;5.824;2023-03-19T05:47:58;101112.44;;;13.34;59.21
48527;BME280;34317;51.660;5.824;2023-03-19T05:50:26;101115.25;;;13.31;59.31
48527;BME280;34317;51.660;5.824;2023-03-19T05:53:26;101119.75;;;13.29;59.31
48527;BME280;34317;51.660;5.824;2023-03-19T05:56:26;101121.66;;;13.27;59.21
48527;BME280;34317;51.660;5.824;2023-03-19T05:59:07;101123.53;;;13.25;59.27
48527;BME280;34317;51.660;5.824;2023-03-19T06:01:38;101132.44;;;13.24;59.23
48527;BME280;34317;51.660;5.824;2023-03-19T06:04:05;101129.00;;;13.22;59.48
48527;BME280;34317;51.660;5.824;2023-03-19T06:06:33;101130.88;;;13.20;59.56
48527;BME280;34317;51.660;5.824;2023-03-19T06:09:01;101136.19;;;13.20;59.39
48527;BME280;34317;51.660;5.824;2023-03-19T06:11:34;101138.06;;;13.18;59.48
48527;BME280;34317;51.660;5.824;2023-03-19T06:14:22;101147.00;;;13.17;59.56
48527;BME280;34317;51.660;5.824;2023-03-19T06:17:08;101148.88;;;13.15;59.47
48527;BME280;34317;51.660;5.824;2023-03-19T06:19:36;101147.16;;;13.14;59.57
48527;BME280;34317;51.660;5.824;2023-03-19T06:22:03;101146.31;;;13.13;59.63
48527;BME280;34317;51.660;5.824;2023-03-19T06:24:40;101152.63;;;13.11;59.70
48527;BME280;34317;51.660;5.824;2023-03-19T06:27:08;101152.63;;;13.11;59.71
48527;BME280;34317;51.660;5.824;2023-03-19T06:29:37;101154.50;;;13.09;59.80
48527;BME280;34317;51.660;5.824;2023-03-19T06:32:16;101161.56;;;13.10;59.90
48527;BME280;34317;51.660;5.824;2023-03-19T06:34:44;101156.22;;;13.10;59.95
48527;BME280;34317;51.660;5.824;2023-03-19T06:37:11;101163.25;;;13.11;59.89
48527;BME280;34317;51.660;5.824;2023-03-19T06:39:38;101159.66;;;13.12;59.98
48527;BME280;34317;51.660;5.824;2023-03-19T06:42:06;101163.09;;;13.14;59.79
48527;BME280;34317;51.660;5.824;2023-03-19T06:44:33;101166.53;;;13.16;59.79
48527;BME280;34317;51.660;5.824;2023-03-19T06:47:01;101162.00;;;13.18;59.81
48527;BME280;34317;51.660;5.824;2023-03-19T06:49:28;101167.97;;;13.23;59.95
48527;BME280;34317;51.660;5.824;2023-03-19T06:51:56;101176.56;;;13.28;60.10
48527;BME280;34317;51.660;5.824;2023-03-19T06:54:23;101172.66;;;13.35;60.21
48527;BME280;34317;51.660;5.824;2023-03-19T06:56:50;101174.97;;;13.43;60.13
48527;BME280;34317;51.660;5.824;2023-03-19T06:59:17;101180.97;;;13.47;60.14
48527;BME280;34317;51.660;5.824;2023-03-19T07:01:45;101181.66;;;13.50;60.28
48527;BME280;34317;51.660;5.824;2023-03-19T07:04:12;101191.31;;;13.53;60.07
48527;BME280;34317;51.660;5.824;2023-03-19T07:06:40;101185.81;;;13.56;60.20
48527;BME280;34317;51.660;5.824;2023-03-19T07:09:07;101192.88;;;13.57;60.09
48527;BME280;34317;51.660;5.824;2023-03-19T07:11:35;101190.97;;;13.59;60.24
48527;BME280;34317;51.660;5.824;2023-03-19T07:14:03;101194.41;;;13.61;60.11
48527;BME280;34317;51.660;5.824;2023-03-19T07:16:30;101192.53;;;13.63;59.97
48527;BME280;34317;51.660;5.824;2023-03-19T07:18:58;101197.72;;;13.66;60.07
48527;BME280;34317;51.660;5.824;2023-03-19T07:21:25;101199.28;;;13.70;60.08
48527;BME280;34317;51.660;5.824;2023-03-19T07:23:52;101201.69;;;13.75;60.14
48527;BME280;34317;51.660;5.824;2023-03-19T07:26:19;101216.47;;;13.80;60.18
48527;BME280;34317;51.660;5.824;2023-03-19T07:28:46;101201.31;;;13.82;60.17
48527;BME280;34317;51.660;5.824;2023-03-19T07:31:14;101219.59;;;13.89;60.27
48527;BME280;34317;51.660;5.824;2023-03-19T07:33:43;101207.06;;;13.91;60.04
48527;BME280;34317;51.660;5.824;2023-03-19T07:36:10;101212.25;;;13.94;60.12
48527;BME280;34317;51.660;5.824;2023-03-19T07:38:37;101206.56;;;14.00;60.38
48527;BME280;34317;51.660;5.824;2023-03-19T07:41:04;101219.41;;;14.09;60.35
48527;BME280;34317;51.660;5.824;2023-03-19T07:43:32;101217.03;;;14.20;60.55
48527;BME280;34317;51.660;5.824;2023-03-19T07:45:59;101215.56;;;14.31;60.49
48527;BME280;34317;51.660;5.824;2023-03-19T07:48:27;101221.25;;;14.40;60.48
48527;BME280;34317;51.660;5.824;2023-03-19T07:50:54;101218.00;;;14.51;60.71
48527;BME280;34317;51.660;5.824;2023-03-19T07:53:21;101220.94;;;14.63;60.56
48527;BME280;34317;51.660;5.824;2023-03-19T07:55:48;101214.94;;;14.75;60.54
48527;BME280;34317;51.660;5.824;2023-03-19T07:58:16;101218.94;;;14.82;60.42
48527;BME280;34317;51.660;5.824;2023-03-19T08:00:44;101217.50;;;14.92;60.43
48527;BME280;34317;51.660;5.824;2023-03-19T08:03:11;101220.41;;;15.04;60.53
48527;BME280;34317;51.660;5.824;2023-03-19T08:05:40;101217.97;;;15.15;60.29
48527;BME280;34317;51.660;5.824;2023-03-19T08:08:07;101215.72;;;15.23;60.26
48527;BME280;34317;51.660;5.824;2023-03-19T08:10:34;101219.66;;;15.32;60.07
48527;BME280;34317;51.660;5.824;2023-03-19T08:13:04;101218.22;;;15.41;60.13
48527;BME280;34317;51.660;5.824;2023-03-19T08:15:32;101223.03;;;15.50;59.85
48527;BME280;34317;51.660;5.824;2023-03-19T08:18:00;101229.72;;;15.57;59.91
48527;BME280;34317;51.660;5.824;2023-03-19T08:20:29;101230.91;;;15.67;59.71
48527;BME280;34317;51.660;5.824;2023-03-19T08:22:57;101234.00;;;15.75;59.58
48527;BME280;34317;51.660;5.824;2023-03-19T08:25:26;101240.69;;;15.83;59.39
48527;BME280;34317;51.660;5.824;2023-03-19T08:27:59;101236.50;;;15.93;59.16
48527;BME280;34317;51.660;5.824;2023-03-19T08:30:27;101237.00;;;16.00;58.94
48527;BME280;34317;51.660;5.824;2023-03-19T08:32:54;101239.38;;;16.04;58.51
48527;BME280;34317;51.660;5.824;2023-03-19T08:35:24;101249.88;;;16.07;58.41
48527;BME280;34317;51.660;5.824;2023-03-19T08:37:53;101246.06;;;16.11;58.03
48527;BME280;34317;51.660;5.824;2023-03-19T08:40:21;101238.78;;;16.13;58.05
48527;BME280;34317;51.660;5.824;2023-03-19T08:42:49;101242.22;;;16.15;57.77
48527;BME280;34317;51.660;5.824;2023-03-19T08:45:16;101242.06;;;16.19;57.63
48527;BME280;34317;51.660;5.824;2023-03-19T08:47:44;101250.66;;;16.24;57.64
48527;BME280;34317;51.660;5.824;2023-03-19T08:50:11;101257.31;;;16.31;57.65
48527;BME280;34317;51.660;5.824;2023-03-19T08:52:42;101255.22;;;16.36;57.40
48527;BME280;34317;51.660;5.824;2023-03-19T08:55:09;101258.66;;;16.38;57.29
48527;BME280;34317;51.660;5.824;2023-03-19T08:57:36;101269.34;;;16.38;57.11
48527;BME280;34317;51.660;5.824;2023-03-19T09:00:04;101264.75;;;16.40;57.02
48527;BME280;34317;51.660;5.824;2023-03-19T09:02:32;101270.75;;;16.44;57.11
48527;BME280;34317;51.660;5.824;2023-03-19T09:04:59;101272.00;;;16.52;57.11
48527;BME280;34317;51.660;5.824;2023-03-19T09:10:44;101265.09;;;16.77;57.11
48527;BME280;34317;51.660;5.824;2023-03-19T09:13:18;101275.25;;;16.86;56.93
48527;BME280;34317;51.660;5.824;2023-03-19T09:15:45;101271.97;;;16.96;57.00
48527;BME280;34317;51.660;5.824;2023-03-19T09:18:12;101284.94;;;17.02;56.51
48527;BME280;34317;51.660;5.824;2023-03-19T09:20:40;101282.16;;;17.03;56.45
48527;BME280;34317;51.660;5.824;2023-03-19T09:23:08;101283.03;;;17.04;56.12
48527;BME280;34317;51.660;5.824;2023-03-19T09:25:35;101285.41;;;17.08;55.96
48527;BME280;34317;51.660;5.824;2023-03-19T09:28:04;101279.00;;;17.11;55.98
48527;BME280;34317;51.660;5.824;2023-03-19T09:30:32;101285.84;;;17.15;55.83
48527;BME280;34317;51.660;5.824;2023-03-19T09:32:59;101287.38;;;17.19;55.83
48527;BME280;34317;51.660;5.824;2023-03-19T09:35:27;101290.59;;;17.24;55.76
48527;BME280;34317;51.660;5.824;2023-03-19T09:37:58;101283.13;;;17.29;55.63
48527;BME280;34317;51.660;5.824;2023-03-19T09:40:29;101297.94;;;17.35;55.34
48527;BME280;34317;51.660;5.824;2023-03-19T09:43:16;101298.38;;;17.42;55.39
48527;BME280;34317;51.660;5.824;2023-03-19T09:45:50;101299.69;;;17.49;55.24
48527;BME280;34317;51.660;5.824;2023-03-19T09:48:30;101309.97;;;17.55;55.21
48527;BME280;34317;51.660;5.824;2023-03-19T09:51:01;101309.16;;;17.67;55.24
48527;BME280;34317;51.660;5.824;2023-03-19T09:53:48;101315.59;;;17.78;55.11
48527;BME280;34317;51.660;5.824;2023-03-19T09:56:19;101312.72;;;17.81;54.82
48527;BME280;34317;51.660;5.824;2023-03-19T09:58:47;101316.59;;;17.77;54.30
48527;BME280;34317;51.660;5.824;2023-03-19T10:01:22;101316.03;;;17.71;54.11
48527;BME280;34317;51.660;5.824;2023-03-19T10:03:59;101319.66;;;17.70;54.41
48527;BME280;34317;51.660;5.824;2023-03-19T10:06:34;101322.88;;;17.76;54.46
48527;BME280;34317;51.660;5.824;2023-03-19T10:12:10;101324.56;;;17.91;54.77
48527;BME280;34317;51.660;5.824;2023-03-19T10:14:56;101315.13;;;17.98;54.33
48527;BME280;34317;51.660;5.824;2023-03-19T10:17:31;101314.59;;;18.06;54.21
48527;BME280;34317;51.660;5.824;2023-03-19T10:20:04;101324.03;;;18.12;54.06
48527;BME280;34317;51.660;5.824;2023-03-19T10:22:56;101325.34;;;18.19;53.98
48527;BME280;34317;51.660;5.824;2023-03-19T10:25:27;101328.56;;;18.24;53.83
48527;BME280;34317;51.660;5.824;2023-03-19T10:28:13;101333.50;;;18.30;53.66
48527;BME280;34317;51.660;5.824;2023-03-19T10:30:41;101329.63;;;18.34;53.54
48527;BME280;34317;51.660;5.824;2023-03-19T10:33:24;101330.06;;;18.41;53.34
48527;BME280;34317;51.660;5.824;2023-03-19T10:35:59;101325.34;;;18.44;53.02
48527;BME280;34317;51.660;5.824;2023-03-19T10:38:28;101331.47;;;18.46;53.16
48527;BME280;34317;51.660;5.824;2023-03-19T10:43:28;101328.34;;;18.53;52.90
48527;BME280;34317;51.660;5.824;2023-03-19T10:45:56;101329.81;;;18.57;52.53
48527;BME280;34317;51.660;5.824;2023-03-19T10:48:25;101332.31;;;18.60;52.24
48527;BME280;34317;51.660;5.824;2023-03-19T10:51:03;101327.69;;;18.62;52.42
48527;BME280;34317;51.660;5.824;2023-03-19T10:53:36;101329.72;;;18.71;52.38
48527;BME280;34317;51.660;5.824;2023-03-19T10:56:05;101335.19;;;18.82;52.31
48527;BME280;34317;51.660;5.824;2023-03-19T10:58:34;101341.59;;;18.93;52.01
48527;BME280;34317;51.660;5.824;2023-03-19T11:01:07;101336.66;;;18.99;51.73
48527;BME280;34317;51.660;5.824;2023-03-19T11:03:38;101338.88;;;19.05;51.68
48527;BME280;34317;51.660;5.824;2023-03-19T11:08:55;101332.38;;;19.21;51.30
48527;BME280;34317;51.660;5.824;2023-03-19T11:11:42;101343.84;;;19.36;51.19
48527;BME280;34317;51.660;5.824;2023-03-19T11:14:20;101344.88;;;19.46;50.61
48527;BME280;34317;51.660;5.824;2023-03-19T11:16:55;101354.31;;;19.52;50.63
48527;BME280;34317;51.660;5.824;2023-03-19T11:19:27;101347.38;;;19.60;50.31
48527;BME280;34317;51.660;5.824;2023-03-19T11:24:41;101336.38;;;19.76;50.23
48527;BME280;34317;51.660;5.824;2023-03-19T11:27:13;101339.31;;;19.84;49.74
48527;BME280;34317;51.660;5.824;2023-03-19T11:29:41;101344.34;;;19.89;49.78
48527;BME280;34317;51.660;5.824;2023-03-19T11:35:00;101346.09;;;20.01;49.24
48527;BME280;34317;51.660;5.824;2023-03-19T11:37:55;101348.88;;;20.00;49.08
48527;BME280;34317;51.660;5.824;2023-03-19T11:40:33;101356.47;;;19.95;48.88
48527;BME280;34317;51.660;5.824;2023-03-19T11:47:03;101349.09;;;19.86;48.85
48527;BME280;34317;51.660;5.824;2023-03-19T11:58:33;101357.69;;;19.67;48.34
48527;BME280;34317;51.660;5.824;2023-03-19T12:01:36;101354.69;;;19.58;48.51
48527;BME280;34317;51.660;5.824;2023-03-19T12:09:46;101352.63;;;19.38;48.52
48527;BME280;34317;51.660;5.824;2023-03-19T12:26:38;101348.25;;;19.00;49.04
48527;BME280;34317;51.660;5.824;2023-03-19T12:29:30;101340.19;;;19.00;49.18
48527;BME280;34317;51.660;5.824;2023-03-19T12:32:20;101333.88;;;19.01;49.16
48527;BME280;34317;51.660;5.824;2023-03-19T12:34:59;101341.94;;;19.01;49.21
48527;BME280;34317;51.660;5.824;2023-03-19T12:37:33;101351.19;;;18.97;49.28
48527;BME280;34317;51.660;5.824;2023-03-19T12:40:14;101346.75;;;18.96;49.01
48527;BME280;34317;51.660;5.824;2023-03-19T12:42:48;101348.69;;;18.94;49.24
48527;BME280;34317;51.660;5.824;2023-03-19T12:45:34;101345.03;;;18.95;48.95
48527;BME280;34317;51.660;5.824;2023-03-19T12:48:17;101342.03;;;18.99;49.28
48527;BME280;34317;51.660;5.824;2023-03-19T12:50:51;101345.88;;;19.08;49.50
48527;BME280;34317;51.660;5.824;2023-03-19T12:56:13;101342.38;;;19.19;49.21
48527;BME280;34317;51.660;5.824;2023-03-19T12:59:28;101344.75;;;19.23;49.09
48527;BME280;34317;51.660;5.824;2023-03-19T13:01:57;101350.50;;;19.30;48.93
48527;BME280;34317;51.660;5.824;2023-03-19T13:04:33;101344.94;;;19.33;48.59
48527;BME280;34317;51.660;5.824;2023-03-19T13:07:12;101347.72;;;19.32;48.40
48527;BME280;34317;51.660;5.824;2023-03-19T13:10:08;101355.03;;;19.30;48.49
48527;BME280;34317;51.660;5.824;2023-03-19T13:12:37;101351.94;;;19.23;48.17
48527;BME280;34317;51.660;5.824;2023-03-19T13:15:15;101359.59;;;19.16;48.21
48527;BME280;34317;51.660;5.824;2023-03-19T13:23:12;101366.09;;;19.01;48.37
48527;BME280;34317;51.660;5.824;2023-03-19T13:25:42;101367.03;;;19.00;48.55
48527;BME280;34317;51.660;5.824;2023-03-19T13:28:27;101360.47;;;19.04;48.75
48527;BME280;34317;51.660;5.824;2023-03-19T13:30:58;101366.91;;;19.14;48.90
48527;BME280;34317;51.660;5.824;2023-03-19T13:33:28;101360.88;;;19.23;48.79
48527;BME280;34317;51.660;5.824;2023-03-19T13:35:56;101367.25;;;19.34;48.90
48527;BME280;34317;51.660;5.824;2023-03-19T13:38:24;101366.38;;;19.46;48.92
48527;BME280;34317;51.660;5.824;2023-03-19T13:40:54;101374.25;;;19.60;48.73
48527;BME280;34317;51.660;5.824;2023-03-19T13:46:28;101369.25;;;19.80;48.61
48527;BME280;34317;51.660;5.824;2023-03-19T13:48:52;101373.53;;;19.82;48.42
48527;BME280;34317;51.660;5.824;2023-03-19T13:51:24;101370.94;;;19.81;47.97
48527;BME280;34317;51.660;5.824;2023-03-19T13:59:31;101375.28;;;19.71;48.09
48527;BME280;34317;51.660;5.824;2023-03-19T14:02:45;101375.50;;;19.68;48.03
48527;BME280;34317;51.660;5.824;2023-03-19T14:05:15;101379.41;;;19.63;48.15
48527;BME280;34317;51.660;5.824;2023-03-19T14:07:48;101378.97;;;19.57;48.17
48527;BME280;34317;51.660;5.824;2023-03-19T14:10:21;101378.59;;;19.50;48.47
48527;BME280;34317;51.660;5.824;2023-03-19T14:13:02;101384.44;;;19.44;48.66
48527;BME280;34317;51.660;5.824;2023-03-19T14:15:30;101389.03;;;19.42;48.66
48527;BME280;34317;51.660;5.824;2023-03-19T14:18:02;101389.81;;;19.44;49.04
48527;BME280;34317;51.660;5.824;2023-03-19T14:20:48;101390.41;;;19.48;48.96
48527;BME280;34317;51.660;5.824;2023-03-19T14:23:25;101380.94;;;19.55;49.01